sensor_id;sensor_type;location;lat;lon;timestamp;P1;durP1;ratioP1;P2;durP2;ratioP2
6985;SDS011;3533;51.246;6.850;2023-04-08T00:00:40;1.80;;;1.40;;
6985;SDS011;3533;51.246;6.850;2023-04-08T00:03:05;1.40;;;1.30;;
6985;SDS011;3533;51.246;6.850;2023-04-08T00:05:31;1.40;;;1.30;;
6985;SDS011;3533;51.246;6.850;2023-04-08T00:07:58;1.50;;;1.40;;
6985;SDS011;3533;51.246;6.850;2023-04-08T00:10:23;1.60;;;1.50;;
6985;SDS011;3533;51.246;6.850;2023-04-08T00:12:50;1.60;;;1.50;;
6985;SDS011;3533;51.246;6.850;2023-04-08T00:15:16;1.40;;;1.30;;
6985;SDS011;3533;51.246;6.850;2023-04-08T00:17:41;1.30;;;1.20;;
6985;SDS011;3533;51.246;6.850;2023-04-08T00:20:07;1.53;;;1.40;;
6985;SDS011;3533;51.246;6.850;2023-04-08T00:22:33;2.27;;;1.50;;
6985;SDS011;3533;51.246;6.850;2023-04-08T00:24:59;1.50;;;1.40;;
6985;SDS011;3533;51.246;6.850;2023-04-08T00:27:25;1.47;;;1.37;;
6985;SDS011;3533;51.246;6.850;2023-04-08T00:29:51;1.70;;;1.60;;
6985;SDS011;3533;51.246;6.850;2023-04-08T00:32:17;1.40;;;1.30;;
6985;SDS011;3533;51.246;6.850;2023-04-08T00:34:42;1.47;;;1.37;;
6985;SDS011;3533;51.246;6.850;2023-04-08T00:37:08;1.33;;;1.23;;
6985;SDS011;3533;51.246;6.850;2023-04-08T00:39:33;1.80;;;1.37;;
6985;SDS011;3533;51.246;6.850;2023-04-08T00:42:01;1.47;;;1.30;;
6985;SDS011;3533;51.246;6.850;2023-04-08T00:44:27;1.50;;;1.40;;
6985;SDS011;3533;51.246;6.850;2023-04-08T00:46:52;1.43;;;1.33;;
6985;SDS011;3533;51.246;6.850;2023-04-08T00:49:18;1.63;;;1.53;;
6985;SDS011;3533;51.246;6.850;2023-04-08T00:51:44;1.20;;;1.10;;
6985;SDS011;3533;51.246;6.850;2023-04-08T00:54:10;1.40;;;1.30;;
6985;SDS011;3533;51.246;6.850;2023-04-08T00:56:36;1.40;;;1.30;;
6985;SDS011;3533;51.246;6.850;2023-04-08T00:59:02;1.40;;;1.30;;
6985;SDS011;3533;51.246;6.850;2023-04-08T01:01:33;1.40;;;1.30;;
6985;SDS011;3533;51.246;6.850;2023-04-08T01:07:12;1.30;;;1.20;;
6985;SDS011;3533;51.246;6.850;2023-04-08T01:09:47;1.30;;;1.20;;
6985;SDS011;3533;51.246;6.850;2023-04-08T01:12:23;1.30;;;1.20;;
6985;SDS011;3533;51.246;6.850;2023-04-08T01:15:03;1.50;;;1.40;;
6985;SDS011;3533;51.246;6.850;2023-04-08T01:17:31;2.00;;;1.47;;
6985;SDS011;3533;51.246;6.850;2023-04-08T01:19:59;1.40;;;1.30;;
6985;SDS011;3533;51.246;6.850;2023-04-08T01:25:23;1.50;;;1.40;;
6985;SDS011;3533;51.246;6.850;2023-04-08T01:27:53;1.40;;;1.30;;
6985;SDS011;3533;51.246;6.850;2023-04-08T01:30:20;1.50;;;1.40;;
6985;SDS011;3533;51.246;6.850;2023-04-08T01:32:48;1.40;;;1.30;;
6985;SDS011;3533;51.246;6.850;2023-04-08T01:35:16;1.40;;;1.30;;
6985;SDS011;3533;51.246;6.850;2023-04-08T01:37:42;1.40;;;1.30;;
6985;SDS011;3533;51.246;6.850;2023-04-08T01:40:11;1.20;;;1.10;;
6985;SDS011;3533;51.246;6.850;2023-04-08T01:42:37;1.33;;;1.23;;
6985;SDS011;3533;51.246;6.850;2023-04-08T01:45:04;3.13;;;1.40;;
6985;SDS011;3533;51.246;6.850;2023-04-08T01:47:31;1.50;;;1.40;;
6985;SDS011;3533;51.246;6.850;2023-04-08T01:49:58;1.40;;;1.30;;
6985;SDS011;3533;51.246;6.850;2023-04-08T01:52:24;1.93;;;1.37;;
6985;SDS011;3533;51.246;6.850;2023-04-08T01:54:52;1.60;;;1.50;;
6985;SDS011;3533;51.246;6.850;2023-04-08T01:57:21;1.40;;;1.30;;
6985;SDS011;3533;51.246;6.850;2023-04-08T01:59:49;1.60;;;1.50;;
6985;SDS011;3533;51.246;6.850;2023-04-08T02:02:17;1.50;;;1.40;;
6985;SDS011;3533;51.246;6.850;2023-04-08T02:04:45;1.60;;;1.50;;
6985;SDS011;3533;51.246;6.850;2023-04-08T02:07:11;1.40;;;1.30;;
6985;SDS011;3533;51.246;6.850;2023-04-08T02:09:36;1.30;;;1.20;;
6985;SDS011;3533;51.246;6.850;2023-04-08T02:12:02;1.30;;;1.20;;
6985;SDS011;3533;51.246;6.850;2023-04-08T02:14:28;1.40;;;1.30;;
6985;SDS011;3533;51.246;6.850;2023-04-08T02:25:23;1.60;;;1.50;;
6985;SDS011;3533;51.246;6.850;2023-04-08T02:27:50;1.67;;;1.57;;
6985;SDS011;3533;51.246;6.850;2023-04-08T02:30:17;1.47;;;1.37;;
6985;SDS011;3533;51.246;6.850;2023-04-08T02:32:43;1.67;;;1.57;;
6985;SDS011;3533;51.246;6.850;2023-04-08T02:35:10;1.60;;;1.50;;
6985;SDS011;3533;51.246;6.850;2023-04-08T02:37:38;1.40;;;1.30;;
6985;SDS011;3533;51.246;6.850;2023-04-08T02:40:04;1.50;;;1.40;;
6985;SDS011;3533;51.246;6.850;2023-04-08T02:42:56;1.30;;;1.20;;
6985;SDS011;3533;51.246;6.850;2023-04-08T02:45:26;2.03;;;1.47;;
6985;SDS011;3533;51.246;6.850;2023-04-08T02:47:57;1.80;;;1.53;;
6985;SDS011;3533;51.246;6.850;2023-04-08T02:50:25;1.53;;;1.43;;
6985;SDS011;3533;51.246;6.850;2023-04-08T02:52:50;1.30;;;1.20;;
6985;SDS011;3533;51.246;6.850;2023-04-08T02:55:16;1.50;;;1.40;;
6985;SDS011;3533;51.246;6.850;2023-04-08T02:57:41;1.50;;;1.40;;
6985;SDS011;3533;51.246;6.850;2023-04-08T03:00:07;1.70;;;1.60;;
6985;SDS011;3533;51.246;6.850;2023-04-08T03:02:33;1.40;;;1.30;;
6985;SDS011;3533;51.246;6.850;2023-04-08T03:05:00;1.40;;;1.30;;
6985;SDS011;3533;51.246;6.850;2023-04-08T03:07:25;1.30;;;1.20;;
6985;SDS011;3533;51.246;6.850;2023-04-08T03:09:51;1.40;;;1.30;;
6985;SDS011;3533;51.246;6.850;2023-04-08T03:12:18;1.60;;;1.50;;
6985;SDS011;3533;51.246;6.850;2023-04-08T03:14:45;1.60;;;1.50;;
6985;SDS011;3533;51.246;6.850;2023-04-08T03:17:10;1.60;;;1.50;;
6985;SDS011;3533;51.246;6.850;2023-04-08T03:19:36;1.60;;;1.50;;
6985;SDS011;3533;51.246;6.850;2023-04-08T03:22:01;1.60;;;1.50;;
6985;SDS011;3533;51.246;6.850;2023-04-08T03:24:27;1.60;;;1.50;;
6985;SDS011;3533;51.246;6.850;2023-04-08T03:26:52;1.70;;;1.60;;
6985;SDS011;3533;51.246;6.850;2023-04-08T03:29:18;1.40;;;1.30;;
6985;SDS011;3533;51.246;6.850;2023-04-08T03:31:43;1.53;;;1.40;;
6985;SDS011;3533;51.246;6.850;2023-04-08T03:34:08;1.40;;;1.30;;
6985;SDS011;3533;51.246;6.850;2023-04-08T03:36:34;1.70;;;1.60;;
6985;SDS011;3533;51.246;6.850;2023-04-08T03:38:59;1.30;;;1.20;;
6985;SDS011;3533;51.246;6.850;2023-04-08T03:41:27;1.57;;;1.40;;
6985;SDS011;3533;51.246;6.850;2023-04-08T03:43:53;1.50;;;1.40;;
6985;SDS011;3533;51.246;6.850;2023-04-08T03:46:18;1.53;;;1.33;;
6985;SDS011;3533;51.246;6.850;2023-04-08T03:48:44;1.30;;;1.20;;
6985;SDS011;3533;51.246;6.850;2023-04-08T03:51:09;1.50;;;1.40;;
6985;SDS011;3533;51.246;6.850;2023-04-08T03:53:35;1.10;;;1.10;;
6985;SDS011;3533;51.246;6.850;2023-04-08T03:56:00;1.50;;;1.40;;
6985;SDS011;3533;51.246;6.850;2023-04-08T03:58:27;1.40;;;1.30;;
6985;SDS011;3533;51.246;6.850;2023-04-08T04:00:53;1.33;;;1.23;;
6985;SDS011;3533;51.246;6.850;2023-04-08T04:03:18;1.40;;;1.30;;
6985;SDS011;3533;51.246;6.850;2023-04-08T04:05:44;1.37;;;1.27;;
6985;SDS011;3533;51.246;6.850;2023-04-08T04:08:09;1.97;;;1.40;;
6985;SDS011;3533;51.246;6.850;2023-04-08T04:10:35;1.30;;;1.20;;
6985;SDS011;3533;51.246;6.850;2023-04-08T04:13:01;1.50;;;1.40;;
6985;SDS011;3533;51.246;6.850;2023-04-08T04:15:26;1.40;;;1.30;;
6985;SDS011;3533;51.246;6.850;2023-04-08T04:17:52;1.40;;;1.30;;
6985;SDS011;3533;51.246;6.850;2023-04-08T04:20:17;1.50;;;1.40;;
6985;SDS011;3533;51.246;6.850;2023-04-08T04:22:43;1.30;;;1.20;;
6985;SDS011;3533;51.246;6.850;2023-04-08T04:25:08;1.50;;;1.40;;
6985;SDS011;3533;51.246;6.850;2023-04-08T04:27:34;1.30;;;1.20;;
6985;SDS011;3533;51.246;6.850;2023-04-08T04:30:01;1.63;;;1.53;;
6985;SDS011;3533;51.246;6.850;2023-04-08T04:32:26;1.50;;;1.40;;
6985;SDS011;3533;51.246;6.850;2023-04-08T04:34:52;1.40;;;1.30;;
6985;SDS011;3533;51.246;6.850;2023-04-08T04:37:17;1.70;;;1.60;;
6985;SDS011;3533;51.246;6.850;2023-04-08T04:39:43;1.40;;;1.30;;
6985;SDS011;3533;51.246;6.850;2023-04-08T04:42:09;1.57;;;1.47;;
6985;SDS011;3533;51.246;6.850;2023-04-08T04:44:35;1.63;;;1.53;;
6985;SDS011;3533;51.246;6.850;2023-04-08T04:47:00;1.47;;;1.37;;
6985;SDS011;3533;51.246;6.850;2023-04-08T04:49:26;1.37;;;1.27;;
6985;SDS011;3533;51.246;6.850;2023-04-08T04:51:51;1.47;;;1.37;;
6985;SDS011;3533;51.246;6.850;2023-04-08T04:54:17;1.50;;;1.40;;
6985;SDS011;3533;51.246;6.850;2023-04-08T04:56:42;1.63;;;1.53;;
6985;SDS011;3533;51.246;6.850;2023-04-08T04:59:08;1.60;;;1.50;;
6985;SDS011;3533;51.246;6.850;2023-04-08T05:01:33;1.30;;;1.20;;
6985;SDS011;3533;51.246;6.850;2023-04-08T05:03:59;3.20;;;1.60;;
6985;SDS011;3533;51.246;6.850;2023-04-08T05:06:24;1.40;;;1.30;;
6985;SDS011;3533;51.246;6.850;2023-04-08T05:08:51;1.40;;;1.30;;
6985;SDS011;3533;51.246;6.850;2023-04-08T05:11:17;1.47;;;1.37;;
6985;SDS011;3533;51.246;6.850;2023-04-08T05:13:42;1.60;;;1.50;;
6985;SDS011;3533;51.246;6.850;2023-04-08T05:16:08;1.40;;;1.30;;
6985;SDS011;3533;51.246;6.850;2023-04-08T05:18:34;1.50;;;1.40;;
6985;SDS011;3533;51.246;6.850;2023-04-08T05:21:00;1.50;;;1.40;;
6985;SDS011;3533;51.246;6.850;2023-04-08T05:23:26;1.60;;;1.50;;
6985;SDS011;3533;51.246;6.850;2023-04-08T05:25:51;1.70;;;1.60;;
6985;SDS011;3533;51.246;6.850;2023-04-08T05:28:17;1.43;;;1.33;;
6985;SDS011;3533;51.246;6.850;2023-04-08T05:30:47;1.60;;;1.50;;
6985;SDS011;3533;51.246;6.850;2023-04-08T05:33:13;1.50;;;1.40;;
6985;SDS011;3533;51.246;6.850;2023-04-08T05:35:39;1.50;;;1.40;;
6985;SDS011;3533;51.246;6.850;2023-04-08T05:38:04;1.50;;;1.40;;
6985;SDS011;3533;51.246;6.850;2023-04-08T05:40:30;1.50;;;1.40;;
6985;SDS011;3533;51.246;6.850;2023-04-08T05:42:56;1.43;;;1.33;;
6985;SDS011;3533;51.246;6.850;2023-04-08T05:45:21;1.50;;;1.40;;
6985;SDS011;3533;51.246;6.850;2023-04-08T05:47:47;1.57;;;1.47;;
6985;SDS011;3533;51.246;6.850;2023-04-08T05:50:12;1.67;;;1.43;;
6985;SDS011;3533;51.246;6.850;2023-04-08T05:52:41;1.90;;;1.80;;
6985;SDS011;3533;51.246;6.850;2023-04-08T05:55:11;1.70;;;1.60;;
6985;SDS011;3533;51.246;6.850;2023-04-08T05:57:38;1.80;;;1.70;;
6985;SDS011;3533;51.246;6.850;2023-04-08T06:00:05;1.47;;;1.37;;
6985;SDS011;3533;51.246;6.850;2023-04-08T06:02:32;1.90;;;1.80;;
6985;SDS011;3533;51.246;6.850;2023-04-08T06:04:58;1.40;;;1.30;;
6985;SDS011;3533;51.246;6.850;2023-04-08T06:07:23;1.90;;;1.80;;
6985;SDS011;3533;51.246;6.850;2023-04-08T06:09:49;1.50;;;1.40;;
6985;SDS011;3533;51.246;6.850;2023-04-08T06:12:14;1.77;;;1.67;;
6985;SDS011;3533;51.246;6.850;2023-04-08T06:14:40;1.70;;;1.60;;
6985;SDS011;3533;51.246;6.850;2023-04-08T06:17:05;1.77;;;1.67;;
6985;SDS011;3533;51.246;6.850;2023-04-08T06:19:31;1.73;;;1.63;;
6985;SDS011;3533;51.246;6.850;2023-04-08T06:21:57;1.70;;;1.60;;
6985;SDS011;3533;51.246;6.850;2023-04-08T06:24:26;2.33;;;1.70;;
6985;SDS011;3533;51.246;6.850;2023-04-08T06:26:53;1.53;;;1.43;;
6985;SDS011;3533;51.246;6.850;2023-04-08T06:29:20;1.90;;;1.80;;
6985;SDS011;3533;51.246;6.850;2023-04-08T06:31:48;1.90;;;1.80;;
6985;SDS011;3533;51.246;6.850;2023-04-08T06:34:15;1.83;;;1.73;;
6985;SDS011;3533;51.246;6.850;2023-04-08T06:36:40;1.70;;;1.60;;
6985;SDS011;3533;51.246;6.850;2023-04-08T06:39:06;1.80;;;1.70;;
6985;SDS011;3533;51.246;6.850;2023-04-08T06:41:32;1.73;;;1.63;;
6985;SDS011;3533;51.246;6.850;2023-04-08T06:43:57;1.50;;;1.40;;
6985;SDS011;3533;51.246;6.850;2023-04-08T06:46:23;2.20;;;1.80;;
6985;SDS011;3533;51.246;6.850;2023-04-08T06:48:49;2.00;;;1.90;;
6985;SDS011;3533;51.246;6.850;2023-04-08T06:51:15;1.80;;;1.70;;
6985;SDS011;3533;51.246;6.850;2023-04-08T06:53:40;1.90;;;1.80;;
6985;SDS011;3533;51.246;6.850;2023-04-08T06:56:06;1.93;;;1.83;;
6985;SDS011;3533;51.246;6.850;2023-04-08T06:58:31;1.90;;;1.80;;
6985;SDS011;3533;51.246;6.850;2023-04-08T07:00:57;1.60;;;1.50;;
6985;SDS011;3533;51.246;6.850;2023-04-08T07:03:23;1.80;;;1.70;;
6985;SDS011;3533;51.246;6.850;2023-04-08T07:05:49;1.87;;;1.77;;
6985;SDS011;3533;51.246;6.850;2023-04-08T07:08:14;1.80;;;1.70;;
6985;SDS011;3533;51.246;6.850;2023-04-08T07:10:40;2.13;;;2.03;;
6985;SDS011;3533;51.246;6.850;2023-04-08T07:13:06;1.73;;;1.63;;
6985;SDS011;3533;51.246;6.850;2023-04-08T07:15:31;2.03;;;1.93;;
6985;SDS011;3533;51.246;6.850;2023-04-08T07:17:57;1.90;;;1.80;;
6985;SDS011;3533;51.246;6.850;2023-04-08T07:20:23;2.03;;;1.93;;
6985;SDS011;3533;51.246;6.850;2023-04-08T07:22:50;1.90;;;1.80;;
6985;SDS011;3533;51.246;6.850;2023-04-08T07:25:15;1.80;;;1.70;;
6985;SDS011;3533;51.246;6.850;2023-04-08T07:27:41;1.87;;;1.77;;
6985;SDS011;3533;51.246;6.850;2023-04-08T07:30:07;2.17;;;1.97;;
6985;SDS011;3533;51.246;6.850;2023-04-08T07:32:33;2.07;;;1.97;;
6985;SDS011;3533;51.246;6.850;2023-04-08T07:34:59;1.83;;;1.73;;
6985;SDS011;3533;51.246;6.850;2023-04-08T07:37:25;1.97;;;1.87;;
6985;SDS011;3533;51.246;6.850;2023-04-08T07:39:51;2.00;;;1.90;;
6985;SDS011;3533;51.246;6.850;2023-04-08T07:42:16;1.93;;;1.83;;
6985;SDS011;3533;51.246;6.850;2023-04-08T07:44:42;1.97;;;1.87;;
6985;SDS011;3533;51.246;6.850;2023-04-08T07:47:09;2.30;;;2.20;;
6985;SDS011;3533;51.246;6.850;2023-04-08T07:49:35;2.60;;;2.40;;
6985;SDS011;3533;51.246;6.850;2023-04-08T07:52:01;2.03;;;1.93;;
6985;SDS011;3533;51.246;6.850;2023-04-08T07:54:27;2.50;;;2.30;;
6985;SDS011;3533;51.246;6.850;2023-04-08T07:56:52;2.90;;;2.40;;
6985;SDS011;3533;51.246;6.850;2023-04-08T07:59:18;2.13;;;2.03;;
6985;SDS011;3533;51.246;6.850;2023-04-08T08:01:43;2.50;;;2.30;;
6985;SDS011;3533;51.246;6.850;2023-04-08T08:04:09;2.63;;;2.23;;
6985;SDS011;3533;51.246;6.850;2023-04-08T08:06:35;2.60;;;2.50;;
6985;SDS011;3533;51.246;6.850;2023-04-08T08:09:00;2.07;;;1.97;;
6985;SDS011;3533;51.246;6.850;2023-04-08T08:11:26;2.63;;;2.43;;
6985;SDS011;3533;51.246;6.850;2023-04-08T08:13:52;2.43;;;2.27;;
6985;SDS011;3533;51.246;6.850;2023-04-08T08:16:18;2.53;;;2.33;;
6985;SDS011;3533;51.246;6.850;2023-04-08T08:18:43;2.90;;;2.70;;
6985;SDS011;3533;51.246;6.850;2023-04-08T08:21:09;2.70;;;2.50;;
6985;SDS011;3533;51.246;6.850;2023-04-08T08:23:35;3.17;;;2.97;;
6985;SDS011;3533;51.246;6.850;2023-04-08T08:26:05;2.00;;;1.90;;
6985;SDS011;3533;51.246;6.850;2023-04-08T08:28:35;2.43;;;2.33;;
6985;SDS011;3533;51.246;6.850;2023-04-08T08:31:01;2.63;;;2.43;;
6985;SDS011;3533;51.246;6.850;2023-04-08T08:33:27;2.50;;;2.40;;
6985;SDS011;3533;51.246;6.850;2023-04-08T08:35:53;3.10;;;2.40;;
6985;SDS011;3533;51.246;6.850;2023-04-08T08:38:19;2.90;;;2.70;;
6985;SDS011;3533;51.246;6.850;2023-04-08T08:40:45;2.77;;;2.57;;
6985;SDS011;3533;51.246;6.850;2023-04-08T08:43:11;2.37;;;2.13;;
6985;SDS011;3533;51.246;6.850;2023-04-08T08:45:40;3.10;;;2.90;;
6985;SDS011;3533;51.246;6.850;2023-04-08T08:48:06;3.20;;;2.90;;
6985;SDS011;3533;51.246;6.850;2023-04-08T08:50:32;2.20;;;2.10;;
6985;SDS011;3533;51.246;6.850;2023-04-08T08:52:59;2.93;;;2.73;;
6985;SDS011;3533;51.246;6.850;2023-04-08T08:55:25;3.20;;;3.00;;
6985;SDS011;3533;51.246;6.850;2023-04-08T08:57:56;2.90;;;2.80;;
6985;SDS011;3533;51.246;6.850;2023-04-08T09:00:31;2.67;;;2.47;;
6985;SDS011;3533;51.246;6.850;2023-04-08T09:05:47;2.57;;;2.40;;
6985;SDS011;3533;51.246;6.850;2023-04-08T09:08:22;3.10;;;2.90;;
6985;SDS011;3533;51.246;6.850;2023-04-08T09:10:47;3.00;;;2.80;;
6985;SDS011;3533;51.246;6.850;2023-04-08T09:13:13;2.80;;;2.20;;
6985;SDS011;3533;51.246;6.850;2023-04-08T09:15:59;3.13;;;2.93;;
6985;SDS011;3533;51.246;6.850;2023-04-08T09:18:24;3.00;;;2.80;;
6985;SDS011;3533;51.246;6.850;2023-04-08T09:20:53;2.90;;;2.70;;
6985;SDS011;3533;51.246;6.850;2023-04-08T09:23:18;3.30;;;3.00;;
6985;SDS011;3533;51.246;6.850;2023-04-08T09:25:44;3.07;;;2.87;;
6985;SDS011;3533;51.246;6.850;2023-04-08T09:28:19;2.60;;;2.50;;
6985;SDS011;3533;51.246;6.850;2023-04-08T09:30:47;2.77;;;2.67;;
6985;SDS011;3533;51.246;6.850;2023-04-08T09:33:13;2.80;;;2.60;;
6985;SDS011;3533;51.246;6.850;2023-04-08T09:35:38;3.07;;;2.87;;
6985;SDS011;3533;51.246;6.850;2023-04-08T09:38:04;3.07;;;2.77;;
6985;SDS011;3533;51.246;6.850;2023-04-08T09:40:32;8.70;;;3.27;;
6985;SDS011;3533;51.246;6.850;2023-04-08T09:43:03;3.30;;;3.10;;
6985;SDS011;3533;51.246;6.850;2023-04-08T09:45:31;2.97;;;2.77;;
6985;SDS011;3533;51.246;6.850;2023-04-08T09:48:09;2.60;;;2.50;;
6985;SDS011;3533;51.246;6.850;2023-04-08T09:50:41;2.50;;;2.40;;
6985;SDS011;3533;51.246;6.850;2023-04-08T09:53:18;3.13;;;2.90;;
6985;SDS011;3533;51.246;6.850;2023-04-08T09:55:51;3.03;;;2.83;;
6985;SDS011;3533;51.246;6.850;2023-04-08T09:58:20;3.30;;;2.87;;
6985;SDS011;3533;51.246;6.850;2023-04-08T10:00:51;3.03;;;2.83;;
6985;SDS011;3533;51.246;6.850;2023-04-08T10:03:23;2.57;;;2.37;;
6985;SDS011;3533;51.246;6.850;2023-04-08T10:05:52;2.43;;;2.23;;
6985;SDS011;3533;51.246;6.850;2023-04-08T10:08:20;2.60;;;2.50;;
6985;SDS011;3533;51.246;6.850;2023-04-08T10:10:47;2.67;;;2.57;;
6985;SDS011;3533;51.246;6.850;2023-04-08T10:13:12;2.63;;;2.50;;
6985;SDS011;3533;51.246;6.850;2023-04-08T10:15:39;2.17;;;2.07;;
6985;SDS011;3533;51.246;6.850;2023-04-08T10:23:02;2.33;;;2.23;;
6985;SDS011;3533;51.246;6.850;2023-04-08T10:25:44;2.50;;;2.30;;
6985;SDS011;3533;51.246;6.850;2023-04-08T10:30:43;2.77;;;2.57;;
6985;SDS011;3533;51.246;6.850;2023-04-08T10:33:10;2.27;;;2.17;;
6985;SDS011;3533;51.246;6.850;2023-04-08T10:35:41;2.60;;;2.50;;
6985;SDS011;3533;51.246;6.850;2023-04-08T10:38:10;2.30;;;2.20;;
6985;SDS011;3533;51.246;6.850;2023-04-08T10:40:37;2.37;;;2.27;;
6985;SDS011;3533;51.246;6.850;2023-04-08T10:43:05;2.50;;;2.40;;
6985;SDS011;3533;51.246;6.850;2023-04-08T10:45:31;2.80;;;2.60;;
6985;SDS011;3533;51.246;6.850;2023-04-08T10:48:10;2.90;;;2.70;;
6985;SDS011;3533;51.246;6.850;2023-04-08T10:50:40;2.73;;;2.60;;
6985;SDS011;3533;51.246;6.850;2023-04-08T10:53:06;2.83;;;2.63;;
6985;SDS011;3533;51.246;6.850;2023-04-08T10:55:32;2.70;;;2.50;;
6985;SDS011;3533;51.246;6.850;2023-04-08T10:58:07;2.40;;;2.30;;
6985;SDS011;3533;51.246;6.850;2023-04-08T11:00:35;2.70;;;2.57;;
6985;SDS011;3533;51.246;6.850;2023-04-08T11:05:28;2.33;;;2.23;;
6985;SDS011;3533;51.246;6.850;2023-04-08T11:07:55;4.50;;;2.27;;
6985;SDS011;3533;51.246;6.850;2023-04-08T11:10:21;2.17;;;2.07;;
6985;SDS011;3533;51.246;6.850;2023-04-08T11:12:47;2.67;;;2.47;;
6985;SDS011;3533;51.246;6.850;2023-04-08T11:15:13;2.53;;;2.43;;
6985;SDS011;3533;51.246;6.850;2023-04-08T11:17:39;3.10;;;2.90;;
6985;SDS011;3533;51.246;6.850;2023-04-08T11:20:07;2.37;;;2.27;;
6985;SDS011;3533;51.246;6.850;2023-04-08T11:22:33;2.53;;;2.33;;
6985;SDS011;3533;51.246;6.850;2023-04-08T11:24:59;2.33;;;2.23;;
6985;SDS011;3533;51.246;6.850;2023-04-08T11:27:25;2.93;;;2.80;;
6985;SDS011;3533;51.246;6.850;2023-04-08T11:29:52;2.80;;;2.60;;
6985;SDS011;3533;51.246;6.850;2023-04-08T11:32:20;2.73;;;2.57;;
6985;SDS011;3533;51.246;6.850;2023-04-08T11:34:47;3.33;;;2.60;;
6985;SDS011;3533;51.246;6.850;2023-04-08T11:37:13;2.37;;;2.27;;
6985;SDS011;3533;51.246;6.850;2023-04-08T11:39:42;2.97;;;2.77;;
6985;SDS011;3533;51.246;6.850;2023-04-08T11:42:08;2.83;;;2.63;;
6985;SDS011;3533;51.246;6.850;2023-04-08T11:44:33;2.70;;;2.57;;
6985;SDS011;3533;51.246;6.850;2023-04-08T11:46:59;2.67;;;2.47;;
6985;SDS011;3533;51.246;6.850;2023-04-08T11:49:26;3.00;;;2.80;;
6985;SDS011;3533;51.246;6.850;2023-04-08T11:51:55;3.30;;;3.10;;
6985;SDS011;3533;51.246;6.850;2023-04-08T11:54:28;2.97;;;2.77;;
6985;SDS011;3533;51.246;6.850;2023-04-08T11:56:54;2.60;;;2.50;;
6985;SDS011;3533;51.246;6.850;2023-04-08T11:59:22;2.60;;;2.50;;
6985;SDS011;3533;51.246;6.850;2023-04-08T12:01:48;2.30;;;2.20;;
6985;SDS011;3533;51.246;6.850;2023-04-08T12:04:13;12.90;;;4.10;;
6985;SDS011;3533;51.246;6.850;2023-04-08T12:06:39;7.93;;;2.67;;
6985;SDS011;3533;51.246;6.850;2023-04-08T12:09:07;3.80;;;3.20;;
6985;SDS011;3533;51.246;6.850;2023-04-08T12:11:33;5.10;;;3.70;;
6985;SDS011;3533;51.246;6.850;2023-04-08T12:13:58;8.47;;;4.83;;
6985;SDS011;3533;51.246;6.850;2023-04-08T12:16:24;12.23;;;5.17;;
6985;SDS011;3533;51.246;6.850;2023-04-08T12:18:49;33.57;;;5.87;;
6985;SDS011;3533;51.246;6.850;2023-04-08T12:21:15;20.73;;;5.00;;
6985;SDS011;3533;51.246;6.850;2023-04-08T12:23:41;12.37;;;4.10;;
6985;SDS011;3533;51.246;6.850;2023-04-08T12:26:06;21.77;;;4.20;;
6985;SDS011;3533;51.246;6.850;2023-04-08T12:28:32;11.10;;;3.93;;
6985;SDS011;3533;51.246;6.850;2023-04-08T12:30:59;6.30;;;3.33;;
6985;SDS011;3533;51.246;6.850;2023-04-08T12:33:24;7.07;;;3.33;;
6985;SDS011;3533;51.246;6.850;2023-04-08T12:35:50;6.73;;;3.03;;
6985;SDS011;3533;51.246;6.850;2023-04-08T12:38:16;3.17;;;2.70;;
6985;SDS011;3533;51.246;6.850;2023-04-08T12:40:41;3.40;;;2.83;;
6985;SDS011;3533;51.246;6.850;2023-04-08T12:43:07;3.20;;;2.90;;
6985;SDS011;3533;51.246;6.850;2023-04-08T12:45:32;4.40;;;3.53;;
6985;SDS011;3533;51.246;6.850;2023-04-08T12:47:58;3.77;;;3.50;;
6985;SDS011;3533;51.246;6.850;2023-04-08T12:50:23;3.90;;;3.60;;
6985;SDS011;3533;51.246;6.850;2023-04-08T12:52:49;4.20;;;3.37;;
6985;SDS011;3533;51.246;6.850;2023-04-08T12:55:14;3.13;;;2.83;;
6985;SDS011;3533;51.246;6.850;2023-04-08T12:57:40;3.23;;;2.93;;
6985;SDS011;3533;51.246;6.850;2023-04-08T13:00:06;3.73;;;3.43;;
6985;SDS011;3533;51.246;6.850;2023-04-08T13:02:32;3.57;;;3.37;;
6985;SDS011;3533;51.246;6.850;2023-04-08T13:04:57;2.90;;;2.70;;
6985;SDS011;3533;51.246;6.850;2023-04-08T13:07:23;3.67;;;3.37;;
6985;SDS011;3533;51.246;6.850;2023-04-08T13:09:48;3.30;;;3.10;;
6985;SDS011;3533;51.246;6.850;2023-04-08T13:12:14;3.23;;;3.03;;
6985;SDS011;3533;51.246;6.850;2023-04-08T13:14:40;2.90;;;2.70;;
6985;SDS011;3533;51.246;6.850;2023-04-08T13:17:05;3.27;;;3.07;;
6985;SDS011;3533;51.246;6.850;2023-04-08T13:19:31;5.00;;;3.50;;
6985;SDS011;3533;51.246;6.850;2023-04-08T13:21:56;3.77;;;3.47;;
6985;SDS011;3533;51.246;6.850;2023-04-08T13:24:22;3.93;;;3.63;;
6985;SDS011;3533;51.246;6.850;2023-04-08T13:26:47;3.23;;;3.03;;
6985;SDS011;3533;51.246;6.850;2023-04-08T13:29:13;3.00;;;2.80;;
6985;SDS011;3533;51.246;6.850;2023-04-08T13:31:39;3.33;;;3.13;;
6985;SDS011;3533;51.246;6.850;2023-04-08T13:34:04;3.23;;;2.97;;
6985;SDS011;3533;51.246;6.850;2023-04-08T13:36:30;3.30;;;3.10;;
6985;SDS011;3533;51.246;6.850;2023-04-08T13:38:56;3.73;;;3.53;;
6985;SDS011;3533;51.246;6.850;2023-04-08T13:41:21;3.53;;;3.07;;
6985;SDS011;3533;51.246;6.850;2023-04-08T13:43:47;3.63;;;3.43;;
6985;SDS011;3533;51.246;6.850;2023-04-08T13:46:14;3.23;;;3.03;;
6985;SDS011;3533;51.246;6.850;2023-04-08T13:48:40;2.90;;;2.70;;
6985;SDS011;3533;51.246;6.850;2023-04-08T13:51:05;4.40;;;3.60;;
6985;SDS011;3533;51.246;6.850;2023-04-08T13:53:31;2.90;;;2.70;;
6985;SDS011;3533;51.246;6.850;2023-04-08T13:55:56;2.90;;;2.80;;
6985;SDS011;3533;51.246;6.850;2023-04-08T13:58:23;3.87;;;3.33;;
6985;SDS011;3533;51.246;6.850;2023-04-08T14:00:50;5.50;;;3.10;;
6985;SDS011;3533;51.246;6.850;2023-04-08T14:03:16;3.50;;;3.00;;
6985;SDS011;3533;51.246;6.850;2023-04-08T14:05:41;3.83;;;3.63;;
6985;SDS011;3533;51.246;6.850;2023-04-08T14:08:07;3.57;;;3.37;;
6985;SDS011;3533;51.246;6.850;2023-04-08T14:10:33;4.00;;;3.00;;
6985;SDS011;3533;51.246;6.850;2023-04-08T14:12:58;3.37;;;3.10;;
6985;SDS011;3533;51.246;6.850;2023-04-08T14:15:24;6.80;;;4.30;;
6985;SDS011;3533;51.246;6.850;2023-04-08T14:17:49;7.40;;;3.93;;
6985;SDS011;3533;51.246;6.850;2023-04-08T14:20:15;12.87;;;4.50;;
6985;SDS011;3533;51.246;6.850;2023-04-08T14:22:41;7.33;;;3.43;;
6985;SDS011;3533;51.246;6.850;2023-04-08T14:25:06;4.53;;;3.80;;
6985;SDS011;3533;51.246;6.850;2023-04-08T14:27:32;11.80;;;4.40;;
6985;SDS011;3533;51.246;6.850;2023-04-08T14:29:58;8.00;;;4.20;;
6985;SDS011;3533;51.246;6.850;2023-04-08T14:32:23;12.50;;;4.23;;
6985;SDS011;3533;51.246;6.850;2023-04-08T14:34:49;12.33;;;5.47;;
6985;SDS011;3533;51.246;6.850;2023-04-08T14:37:14;10.07;;;4.67;;
6985;SDS011;3533;51.246;6.850;2023-04-08T14:39:41;14.50;;;4.63;;
6985;SDS011;3533;51.246;6.850;2023-04-08T14:42:07;10.77;;;4.90;;
6985;SDS011;3533;51.246;6.850;2023-04-08T14:44:33;17.50;;;5.57;;
6985;SDS011;3533;51.246;6.850;2023-04-08T14:46:58;56.67;;;11.20;;
6985;SDS011;3533;51.246;6.850;2023-04-08T14:49:24;40.37;;;8.53;;
6985;SDS011;3533;51.246;6.850;2023-04-08T14:51:50;42.03;;;8.07;;
6985;SDS011;3533;51.246;6.850;2023-04-08T14:54:15;35.30;;;7.70;;
6985;SDS011;3533;51.246;6.850;2023-04-08T14:56:42;40.97;;;9.20;;
6985;SDS011;3533;51.246;6.850;2023-04-08T14:59:08;29.73;;;8.13;;
6985;SDS011;3533;51.246;6.850;2023-04-08T15:01:34;42.03;;;9.27;;
6985;SDS011;3533;51.246;6.850;2023-04-08T15:04:00;32.87;;;8.10;;
6985;SDS011;3533;51.246;6.850;2023-04-08T15:06:25;33.30;;;7.53;;
6985;SDS011;3533;51.246;6.850;2023-04-08T15:08:51;30.83;;;7.30;;
6985;SDS011;3533;51.246;6.850;2023-04-08T15:11:17;30.23;;;7.47;;
6985;SDS011;3533;51.246;6.850;2023-04-08T15:13:46;28.73;;;8.20;;
6985;SDS011;3533;51.246;6.850;2023-04-08T15:16:12;23.90;;;7.40;;
6985;SDS011;3533;51.246;6.850;2023-04-08T15:18:37;23.40;;;7.77;;
6985;SDS011;3533;51.246;6.850;2023-04-08T15:21:03;22.03;;;6.87;;
6985;SDS011;3533;51.246;6.850;2023-04-08T15:23:29;17.77;;;7.53;;
6985;SDS011;3533;51.246;6.850;2023-04-08T15:25:55;19.50;;;7.07;;
6985;SDS011;3533;51.246;6.850;2023-04-08T15:28:21;23.40;;;6.40;;
6985;SDS011;3533;51.246;6.850;2023-04-08T15:30:47;21.67;;;7.20;;
6985;SDS011;3533;51.246;6.850;2023-04-08T15:33:14;19.00;;;6.50;;
6985;SDS011;3533;51.246;6.850;2023-04-08T15:35:40;16.53;;;6.23;;
6985;SDS011;3533;51.246;6.850;2023-04-08T15:38:10;18.90;;;5.80;;